sensor_id;sensor_type;location;lat;lon;timestamp;P1;durP1;ratioP1;P2;durP2;ratioP2
7539;SDS011;3811;49.006;12.076;2023-11-21T00:01:43;1.90;;;1.80;;
7539;SDS011;3811;49.006;12.076;2023-11-21T00:04:11;1.23;;;1.13;;
7539;SDS011;3811;49.006;12.076;2023-11-21T00:06:38;3.60;;;1.50;;
7539;SDS011;3811;49.006;12.076;2023-11-21T00:09:06;1.53;;;1.43;;
7539;SDS011;3811;49.006;12.076;2023-11-21T00:11:35;1.27;;;1.27;;
7539;SDS011;3811;49.006;12.076;2023-11-21T00:14:03;0.83;;;0.83;;
7539;SDS011;3811;49.006;12.076;2023-11-21T00:16:30;2.00;;;1.53;;
7539;SDS011;3811;49.006;12.076;2023-11-21T00:18:57;1.73;;;1.63;;
7539;SDS011;3811;49.006;12.076;2023-11-21T00:21:24;1.07;;;1.07;;
7539;SDS011;3811;49.006;12.076;2023-11-21T00:23:51;1.63;;;1.53;;
7539;SDS011;3811;49.006;12.076;2023-11-21T00:26:19;1.50;;;1.40;;
7539;SDS011;3811;49.006;12.076;2023-11-21T00:28:57;1.53;;;1.40;;
7539;SDS011;3811;49.006;12.076;2023-11-21T00:31:25;1.60;;;1.50;;
7539;SDS011;3811;49.006;12.076;2023-11-21T00:33:52;2.50;;;1.93;;
7539;SDS011;3811;49.006;12.076;2023-11-21T00:36:20;1.57;;;1.47;;
7539;SDS011;3811;49.006;12.076;2023-11-21T00:38:47;2.17;;;1.80;;
7539;SDS011;3811;49.006;12.076;2023-11-21T00:41:15;2.03;;;1.87;;
7539;SDS011;3811;49.006;12.076;2023-11-21T00:43:42;1.67;;;1.57;;
7539;SDS011;3811;49.006;12.076;2023-11-21T00:46:10;1.40;;;1.30;;
7539;SDS011;3811;49.006;12.076;2023-11-21T00:48:37;1.60;;;1.50;;
7539;SDS011;3811;49.006;12.076;2023-11-21T00:51:05;1.57;;;1.47;;
7539;SDS011;3811;49.006;12.076;2023-11-21T00:53:32;1.43;;;1.40;;
7539;SDS011;3811;49.006;12.076;2023-11-21T00:55:59;1.53;;;1.43;;
7539;SDS011;3811;49.006;12.076;2023-11-21T00:58:27;1.90;;;1.37;;
7539;SDS011;3811;49.006;12.076;2023-11-21T01:00:55;3.63;;;1.33;;
7539;SDS011;3811;49.006;12.076;2023-11-21T01:03:24;2.73;;;1.90;;
7539;SDS011;3811;49.006;12.076;2023-11-21T01:05:51;2.47;;;1.57;;
7539;SDS011;3811;49.006;12.076;2023-11-21T01:08:20;2.40;;;1.93;;
7539;SDS011;3811;49.006;12.076;2023-11-21T01:10:49;1.40;;;1.30;;
7539;SDS011;3811;49.006;12.076;2023-11-21T01:13:16;1.60;;;1.50;;
7539;SDS011;3811;49.006;12.076;2023-11-21T01:15:43;1.70;;;1.60;;
7539;SDS011;3811;49.006;12.076;2023-11-21T01:18:11;1.27;;;1.27;;
7539;SDS011;3811;49.006;12.076;2023-11-21T01:20:40;2.10;;;1.83;;
7539;SDS011;3811;49.006;12.076;2023-11-21T01:23:07;2.00;;;1.80;;
7539;SDS011;3811;49.006;12.076;2023-11-21T01:25:34;2.47;;;1.67;;
7539;SDS011;3811;49.006;12.076;2023-11-21T01:28:01;2.13;;;1.70;;
7539;SDS011;3811;49.006;12.076;2023-11-21T01:30:30;1.80;;;1.70;;
7539;SDS011;3811;49.006;12.076;2023-11-21T01:32:57;1.60;;;1.50;;
7539;SDS011;3811;49.006;12.076;2023-11-21T01:35:24;2.53;;;1.13;;
7539;SDS011;3811;49.006;12.076;2023-11-21T01:37:53;2.00;;;1.83;;
7539;SDS011;3811;49.006;12.076;2023-11-21T01:40:20;1.40;;;1.37;;
7539;SDS011;3811;49.006;12.076;2023-11-21T01:42:47;2.57;;;1.80;;
7539;SDS011;3811;49.006;12.076;2023-11-21T01:45:14;1.60;;;1.50;;
7539;SDS011;3811;49.006;12.076;2023-11-21T01:47:42;1.60;;;1.50;;
7539;SDS011;3811;49.006;12.076;2023-11-21T01:50:13;1.33;;;1.23;;
7539;SDS011;3811;49.006;12.076;2023-11-21T01:52:42;1.40;;;1.30;;
7539;SDS011;3811;49.006;12.076;2023-11-21T01:55:11;1.10;;;1.10;;
7539;SDS011;3811;49.006;12.076;2023-11-21T01:57:41;2.23;;;0.93;;
7539;SDS011;3811;49.006;12.076;2023-11-21T02:00:09;2.43;;;1.23;;
7539;SDS011;3811;49.006;12.076;2023-11-21T02:02:42;1.57;;;1.07;;
7539;SDS011;3811;49.006;12.076;2023-11-21T02:05:09;1.33;;;1.23;;
7539;SDS011;3811;49.006;12.076;2023-11-21T02:07:37;1.20;;;1.20;;
7539;SDS011;3811;49.006;12.076;2023-11-21T02:10:05;1.13;;;1.13;;
7539;SDS011;3811;49.006;12.076;2023-11-21T02:12:35;1.30;;;1.30;;
7539;SDS011;3811;49.006;12.076;2023-11-21T02:15:04;0.90;;;0.90;;
7539;SDS011;3811;49.006;12.076;2023-11-21T02:17:40;1.23;;;1.23;;
7539;SDS011;3811;49.006;12.076;2023-11-21T02:20:07;1.20;;;1.13;;
7539;SDS011;3811;49.006;12.076;2023-11-21T02:22:43;1.07;;;1.07;;
7539;SDS011;3811;49.006;12.076;2023-11-21T02:25:15;1.10;;;1.10;;
7539;SDS011;3811;49.006;12.076;2023-11-21T02:27:43;1.20;;;0.97;;
7539;SDS011;3811;49.006;12.076;2023-11-21T02:30:14;1.30;;;1.20;;
7539;SDS011;3811;49.006;12.076;2023-11-21T02:32:41;1.30;;;1.30;;
7539;SDS011;3811;49.006;12.076;2023-11-21T02:35:09;1.90;;;1.30;;
7539;SDS011;3811;49.006;12.076;2023-11-21T02:37:37;1.53;;;1.43;;
7539;SDS011;3811;49.006;12.076;2023-11-21T02:40:08;1.20;;;1.17;;
7539;SDS011;3811;49.006;12.076;2023-11-21T02:42:37;2.40;;;1.33;;
7539;SDS011;3811;49.006;12.076;2023-11-21T02:45:05;1.27;;;1.27;;
7539;SDS011;3811;49.006;12.076;2023-11-21T02:47:33;1.10;;;1.10;;
7539;SDS011;3811;49.006;12.076;2023-11-21T02:50:00;1.00;;;1.00;;
7539;SDS011;3811;49.006;12.076;2023-11-21T02:52:27;1.20;;;1.20;;
7539;SDS011;3811;49.006;12.076;2023-11-21T02:54:54;1.20;;;1.20;;
7539;SDS011;3811;49.006;12.076;2023-11-21T02:57:23;1.50;;;1.40;;
7539;SDS011;3811;49.006;12.076;2023-11-21T02:59:50;1.50;;;1.40;;
7539;SDS011;3811;49.006;12.076;2023-11-21T03:02:17;1.70;;;1.60;;
7539;SDS011;3811;49.006;12.076;2023-11-21T03:04:44;1.00;;;1.00;;
7539;SDS011;3811;49.006;12.076;2023-11-21T03:07:13;1.20;;;1.10;;
7539;SDS011;3811;49.006;12.076;2023-11-21T03:09:40;0.63;;;0.63;;
7539;SDS011;3811;49.006;12.076;2023-11-21T03:12:09;1.57;;;1.47;;
7539;SDS011;3811;49.006;12.076;2023-11-21T03:14:38;1.10;;;1.10;;
7539;SDS011;3811;49.006;12.076;2023-11-21T03:17:05;1.47;;;1.37;;
7539;SDS011;3811;49.006;12.076;2023-11-21T03:19:32;1.33;;;1.23;;
7539;SDS011;3811;49.006;12.076;2023-11-21T03:22:00;1.00;;;1.00;;
7539;SDS011;3811;49.006;12.076;2023-11-21T03:24:27;1.20;;;1.17;;
7539;SDS011;3811;49.006;12.076;2023-11-21T03:26:54;1.13;;;1.10;;
7539;SDS011;3811;49.006;12.076;2023-11-21T03:29:21;0.80;;;0.80;;
7539;SDS011;3811;49.006;12.076;2023-11-21T03:31:50;1.03;;;1.03;;
7539;SDS011;3811;49.006;12.076;2023-11-21T03:34:22;1.93;;;1.10;;
7539;SDS011;3811;49.006;12.076;2023-11-21T03:36:51;1.33;;;1.33;;
7539;SDS011;3811;49.006;12.076;2023-11-21T03:39:19;1.30;;;1.20;;
7539;SDS011;3811;49.006;12.076;2023-11-21T03:41:47;0.80;;;0.80;;
7539;SDS011;3811;49.006;12.076;2023-11-21T03:44:15;1.50;;;1.40;;
7539;SDS011;3811;49.006;12.076;2023-11-21T03:46:43;1.07;;;1.07;;
7539;SDS011;3811;49.006;12.076;2023-11-21T03:49:12;1.77;;;1.67;;
7539;SDS011;3811;49.006;12.076;2023-11-21T03:51:40;1.70;;;1.60;;
7539;SDS011;3811;49.006;12.076;2023-11-21T03:54:08;0.80;;;0.80;;
7539;SDS011;3811;49.006;12.076;2023-11-21T03:56:38;1.20;;;1.20;;
7539;SDS011;3811;49.006;12.076;2023-11-21T03:59:05;1.00;;;1.00;;
7539;SDS011;3811;49.006;12.076;2023-11-21T04:01:33;1.10;;;1.10;;
7539;SDS011;3811;49.006;12.076;2023-11-21T04:04:00;0.93;;;0.93;;
7539;SDS011;3811;49.006;12.076;2023-11-21T04:06:28;1.10;;;1.10;;
7539;SDS011;3811;49.006;12.076;2023-11-21T04:08:55;1.30;;;1.20;;
7539;SDS011;3811;49.006;12.076;2023-11-21T04:11:22;1.97;;;1.87;;
7539;SDS011;3811;49.006;12.076;2023-11-21T04:13:50;1.03;;;1.03;;
7539;SDS011;3811;49.006;12.076;2023-11-21T04:16:17;1.87;;;1.77;;
7539;SDS011;3811;49.006;12.076;2023-11-21T04:18:44;1.63;;;1.53;;
7539;SDS011;3811;49.006;12.076;2023-11-21T04:21:11;1.40;;;1.37;;
7539;SDS011;3811;49.006;12.076;2023-11-21T04:23:40;2.03;;;1.77;;
7539;SDS011;3811;49.006;12.076;2023-11-21T04:26:07;1.67;;;1.57;;
7539;SDS011;3811;49.006;12.076;2023-11-21T04:28:34;1.90;;;1.80;;
7539;SDS011;3811;49.006;12.076;2023-11-21T04:31:01;1.60;;;1.50;;
7539;SDS011;3811;49.006;12.076;2023-11-21T04:33:28;2.07;;;1.97;;
7539;SDS011;3811;49.006;12.076;2023-11-21T04:35:56;1.63;;;1.53;;
7539;SDS011;3811;49.006;12.076;2023-11-21T04:38:23;2.00;;;1.90;;
7539;SDS011;3811;49.006;12.076;2023-11-21T04:40:52;1.77;;;1.67;;
7539;SDS011;3811;49.006;12.076;2023-11-21T04:43:19;1.90;;;1.80;;
7539;SDS011;3811;49.006;12.076;2023-11-21T04:45:46;4.07;;;2.30;;
7539;SDS011;3811;49.006;12.076;2023-11-21T04:48:13;2.03;;;1.93;;
7539;SDS011;3811;49.006;12.076;2023-11-21T04:50:40;1.73;;;1.67;;
7539;SDS011;3811;49.006;12.076;2023-11-21T04:53:07;1.30;;;1.30;;
7539;SDS011;3811;49.006;12.076;2023-11-21T04:55:34;3.23;;;2.30;;
7539;SDS011;3811;49.006;12.076;2023-11-21T04:58:03;2.17;;;1.67;;
7539;SDS011;3811;49.006;12.076;2023-11-21T05:00:30;2.03;;;1.87;;
7539;SDS011;3811;49.006;12.076;2023-11-21T05:02:57;2.00;;;1.90;;
7539;SDS011;3811;49.006;12.076;2023-11-21T05:05:26;1.70;;;1.57;;
7539;SDS011;3811;49.006;12.076;2023-11-21T05:07:54;1.77;;;1.67;;
7539;SDS011;3811;49.006;12.076;2023-11-21T05:10:22;1.63;;;1.53;;
7539;SDS011;3811;49.006;12.076;2023-11-21T05:12:49;1.73;;;1.63;;
7539;SDS011;3811;49.006;12.076;2023-11-21T05:15:18;1.87;;;1.77;;
7539;SDS011;3811;49.006;12.076;2023-11-21T05:17:46;1.60;;;1.50;;
7539;SDS011;3811;49.006;12.076;2023-11-21T05:20:15;2.63;;;1.97;;
7539;SDS011;3811;49.006;12.076;2023-11-21T05:22:46;1.87;;;1.77;;
7539;SDS011;3811;49.006;12.076;2023-11-21T05:25:13;2.20;;;2.10;;
7539;SDS011;3811;49.006;12.076;2023-11-21T05:27:42;2.40;;;1.77;;
7539;SDS011;3811;49.006;12.076;2023-11-21T05:30:09;2.47;;;2.27;;
7539;SDS011;3811;49.006;12.076;2023-11-21T05:32:38;1.80;;;1.70;;
7539;SDS011;3811;49.006;12.076;2023-11-21T05:35:07;1.77;;;1.67;;
7539;SDS011;3811;49.006;12.076;2023-11-21T05:37:39;2.23;;;2.00;;
7539;SDS011;3811;49.006;12.076;2023-11-21T05:40:06;2.57;;;1.87;;
7539;SDS011;3811;49.006;12.076;2023-11-21T05:42:35;1.90;;;1.27;;
7539;SDS011;3811;49.006;12.076;2023-11-21T05:45:04;4.37;;;2.67;;
7539;SDS011;3811;49.006;12.076;2023-11-21T05:47:36;5.97;;;3.47;;
7539;SDS011;3811;49.006;12.076;2023-11-21T05:50:06;7.70;;;5.43;;
7539;SDS011;3811;49.006;12.076;2023-11-21T05:52:37;4.67;;;2.53;;
7539;SDS011;3811;49.006;12.076;2023-11-21T05:55:05;3.17;;;2.80;;
7539;SDS011;3811;49.006;12.076;2023-11-21T05:57:33;2.40;;;2.00;;
7539;SDS011;3811;49.006;12.076;2023-11-21T06:00:02;2.10;;;2.00;;
7539;SDS011;3811;49.006;12.076;2023-11-21T06:02:36;2.10;;;1.90;;
7539;SDS011;3811;49.006;12.076;2023-11-21T06:05:03;2.70;;;2.30;;
7539;SDS011;3811;49.006;12.076;2023-11-21T06:07:32;2.37;;;2.17;;
7539;SDS011;3811;49.006;12.076;2023-11-21T06:10:00;2.13;;;1.77;;
7539;SDS011;3811;49.006;12.076;2023-11-21T06:12:31;2.47;;;2.27;;
7539;SDS011;3811;49.006;12.076;2023-11-21T06:15:01;3.13;;;2.60;;
7539;SDS011;3811;49.006;12.076;2023-11-21T06:17:30;2.53;;;2.33;;
7539;SDS011;3811;49.006;12.076;2023-11-21T06:19:57;2.67;;;2.10;;
7539;SDS011;3811;49.006;12.076;2023-11-21T06:22:25;2.70;;;2.50;;
7539;SDS011;3811;49.006;12.076;2023-11-21T06:24:54;2.10;;;1.90;;
7539;SDS011;3811;49.006;12.076;2023-11-21T06:27:21;2.67;;;2.47;;
7539;SDS011;3811;49.006;12.076;2023-11-21T06:29:50;2.70;;;2.50;;
7539;SDS011;3811;49.006;12.076;2023-11-21T06:32:17;2.70;;;2.40;;
7539;SDS011;3811;49.006;12.076;2023-11-21T06:34:45;2.53;;;2.13;;
7539;SDS011;3811;49.006;12.076;2023-11-21T06:37:13;2.43;;;2.30;;
7539;SDS011;3811;49.006;12.076;2023-11-21T06:39:40;4.77;;;2.60;;
7539;SDS011;3811;49.006;12.076;2023-11-21T06:42:09;3.43;;;2.43;;
7539;SDS011;3811;49.006;12.076;2023-11-21T06:44:36;3.30;;;2.60;;
7539;SDS011;3811;49.006;12.076;2023-11-21T06:47:04;2.20;;;2.00;;
7539;SDS011;3811;49.006;12.076;2023-11-21T06:49:31;3.60;;;2.50;;
7539;SDS011;3811;49.006;12.076;2023-11-21T06:51:59;2.80;;;2.60;;
7539;SDS011;3811;49.006;12.076;2023-11-21T06:54:27;3.07;;;2.67;;
7539;SDS011;3811;49.006;12.076;2023-11-21T06:56:55;2.70;;;2.50;;
7539;SDS011;3811;49.006;12.076;2023-11-21T06:59:23;5.47;;;2.67;;
7539;SDS011;3811;49.006;12.076;2023-11-21T07:01:50;3.23;;;2.93;;
7539;SDS011;3811;49.006;12.076;2023-11-21T07:04:17;2.33;;;2.17;;
7539;SDS011;3811;49.006;12.076;2023-11-21T07:06:45;2.90;;;2.70;;
7539;SDS011;3811;49.006;12.076;2023-11-21T07:09:12;3.40;;;2.93;;
7539;SDS011;3811;49.006;12.076;2023-11-21T07:11:40;3.57;;;3.27;;
7539;SDS011;3811;49.006;12.076;2023-11-21T07:14:08;2.93;;;2.73;;
7539;SDS011;3811;49.006;12.076;2023-11-21T07:16:36;3.10;;;2.90;;
7539;SDS011;3811;49.006;12.076;2023-11-21T07:19:03;2.73;;;2.53;;
7539;SDS011;3811;49.006;12.076;2023-11-21T07:21:31;2.17;;;2.07;;
7539;SDS011;3811;49.006;12.076;2023-11-21T07:23:58;2.60;;;2.40;;
7539;SDS011;3811;49.006;12.076;2023-11-21T07:26:26;3.70;;;2.93;;
7539;SDS011;3811;49.006;12.076;2023-11-21T07:28:53;3.37;;;3.00;;
7539;SDS011;3811;49.006;12.076;2023-11-21T07:31:20;3.80;;;3.17;;
7539;SDS011;3811;49.006;12.076;2023-11-21T07:33:50;3.83;;;3.10;;
7539;SDS011;3811;49.006;12.076;2023-11-21T07:36:18;3.57;;;2.57;;
7539;SDS011;3811;49.006;12.076;2023-11-21T07:38:45;3.33;;;3.03;;
7539;SDS011;3811;49.006;12.076;2023-11-21T07:41:13;3.27;;;2.97;;
7539;SDS011;3811;49.006;12.076;2023-11-21T07:43:41;4.57;;;3.53;;
7539;SDS011;3811;49.006;12.076;2023-11-21T07:46:08;3.20;;;2.90;;
7539;SDS011;3811;49.006;12.076;2023-11-21T07:48:37;3.60;;;3.17;;
7539;SDS011;3811;49.006;12.076;2023-11-21T07:51:06;3.27;;;2.97;;
7539;SDS011;3811;49.006;12.076;2023-11-21T07:53:33;5.07;;;2.73;;
7539;SDS011;3811;49.006;12.076;2023-11-21T07:56:02;2.70;;;2.50;;
7539;SDS011;3811;49.006;12.076;2023-11-21T07:58:30;3.03;;;2.73;;
7539;SDS011;3811;49.006;12.076;2023-11-21T08:00:58;2.93;;;2.63;;
7539;SDS011;3811;49.006;12.076;2023-11-21T08:03:25;3.23;;;2.67;;
7539;SDS011;3811;49.006;12.076;2023-11-21T08:05:54;3.47;;;2.63;;
7539;SDS011;3811;49.006;12.076;2023-11-21T08:08:23;3.00;;;2.70;;
7539;SDS011;3811;49.006;12.076;2023-11-21T08:10:50;5.53;;;2.73;;
7539;SDS011;3811;49.006;12.076;2023-11-21T08:13:21;3.33;;;2.57;;
7539;SDS011;3811;49.006;12.076;2023-11-21T08:15:48;3.97;;;3.00;;
7539;SDS011;3811;49.006;12.076;2023-11-21T08:18:16;2.77;;;2.47;;
7539;SDS011;3811;49.006;12.076;2023-11-21T08:20:43;2.40;;;2.20;;
7539;SDS011;3811;49.006;12.076;2023-11-21T08:23:13;2.47;;;2.27;;
7539;SDS011;3811;49.006;12.076;2023-11-21T08:25:43;2.77;;;2.47;;
7539;SDS011;3811;49.006;12.076;2023-11-21T08:28:10;2.60;;;2.40;;
7539;SDS011;3811;49.006;12.076;2023-11-21T08:30:37;2.63;;;2.43;;
7539;SDS011;3811;49.006;12.076;2023-11-21T08:33:04;4.23;;;2.90;;
7539;SDS011;3811;49.006;12.076;2023-11-21T08:35:32;3.27;;;2.90;;
7539;SDS011;3811;49.006;12.076;2023-11-21T08:37:59;3.17;;;2.87;;
7539;SDS011;3811;49.006;12.076;2023-11-21T08:40:27;1.60;;;1.50;;
7539;SDS011;3811;49.006;12.076;2023-11-21T08:42:55;2.60;;;2.40;;
7539;SDS011;3811;49.006;12.076;2023-11-21T08:45:24;1.33;;;1.27;;
7539;SDS011;3811;49.006;12.076;2023-11-21T08:47:51;2.53;;;2.07;;
7539;SDS011;3811;49.006;12.076;2023-11-21T08:50:18;2.83;;;2.03;;
7539;SDS011;3811;49.006;12.076;2023-11-21T08:52:46;2.17;;;2.07;;
7539;SDS011;3811;49.006;12.076;2023-11-21T08:55:14;2.13;;;1.90;;
7539;SDS011;3811;49.006;12.076;2023-11-21T08:57:43;2.67;;;2.13;;
7539;SDS011;3811;49.006;12.076;2023-11-21T09:00:12;1.77;;;1.67;;
7539;SDS011;3811;49.006;12.076;2023-11-21T09:02:42;2.10;;;2.00;;
7539;SDS011;3811;49.006;12.076;2023-11-21T09:05:09;1.80;;;1.70;;
7539;SDS011;3811;49.006;12.076;2023-11-21T09:07:37;2.40;;;2.20;;
7539;SDS011;3811;49.006;12.076;2023-11-21T09:10:06;2.27;;;2.07;;
7539;SDS011;3811;49.006;12.076;2023-11-21T09:12:34;2.67;;;1.90;;
7539;SDS011;3811;49.006;12.076;2023-11-21T09:15:02;3.60;;;2.23;;
7539;SDS011;3811;49.006;12.076;2023-11-21T09:17:31;2.23;;;1.63;;
7539;SDS011;3811;49.006;12.076;2023-11-21T09:19:59;1.50;;;1.40;;
7539;SDS011;3811;49.006;12.076;2023-11-21T09:22:26;1.77;;;1.67;;
7539;SDS011;3811;49.006;12.076;2023-11-21T09:24:54;2.70;;;2.00;;
7539;SDS011;3811;49.006;12.076;2023-11-21T09:27:22;3.70;;;3.10;;
7539;SDS011;3811;49.006;12.076;2023-11-21T09:29:50;1.90;;;1.80;;
7539;SDS011;3811;49.006;12.076;2023-11-21T09:32:18;1.63;;;1.53;;
7539;SDS011;3811;49.006;12.076;2023-11-21T09:34:47;2.80;;;2.50;;
7539;SDS011;3811;49.006;12.076;2023-11-21T09:37:15;2.00;;;1.90;;
7539;SDS011;3811;49.006;12.076;2023-11-21T09:39:42;2.67;;;2.47;;
7539;SDS011;3811;49.006;12.076;2023-11-21T09:42:10;4.93;;;2.40;;
7539;SDS011;3811;49.006;12.076;2023-11-21T09:44:43;8.67;;;4.80;;
7539;SDS011;3811;49.006;12.076;2023-11-21T09:47:14;3.03;;;2.73;;
7539;SDS011;3811;49.006;12.076;2023-11-21T09:49:42;2.50;;;2.27;;
7539;SDS011;3811;49.006;12.076;2023-11-21T09:52:17;2.33;;;2.13;;
7539;SDS011;3811;49.006;12.076;2023-11-21T09:54:50;2.27;;;2.00;;
7539;SDS011;3811;49.006;12.076;2023-11-21T09:57:18;2.13;;;1.43;;
7539;SDS011;3811;49.006;12.076;2023-11-21T09:59:47;2.03;;;1.40;;
7539;SDS011;3811;49.006;12.076;2023-11-21T10:02:18;2.50;;;1.50;;
7539;SDS011;3811;49.006;12.076;2023-11-21T10:04:46;1.70;;;1.60;;
7539;SDS011;3811;49.006;12.076;2023-11-21T10:07:14;1.40;;;1.30;;
7539;SDS011;3811;49.006;12.076;2023-11-21T10:09:45;1.43;;;1.33;;
7539;SDS011;3811;49.006;12.076;2023-11-21T10:12:13;2.07;;;1.80;;
7539;SDS011;3811;49.006;12.076;2023-11-21T10:14:42;2.20;;;1.40;;
7539;SDS011;3811;49.006;12.076;2023-11-21T10:17:10;1.63;;;1.33;;
7539;SDS011;3811;49.006;12.076;2023-11-21T10:19:38;1.00;;;1.00;;
7539;SDS011;3811;49.006;12.076;2023-11-21T10:22:06;1.40;;;1.30;;
7539;SDS011;3811;49.006;12.076;2023-11-21T10:24:35;1.63;;;1.53;;
7539;SDS011;3811;49.006;12.076;2023-11-21T10:27:03;1.37;;;1.20;;
7539;SDS011;3811;49.006;12.076;2023-11-21T10:29:31;1.10;;;1.10;;
7539;SDS011;3811;49.006;12.076;2023-11-21T10:32:01;1.50;;;1.40;;
7539;SDS011;3811;49.006;12.076;2023-11-21T10:34:28;1.33;;;1.00;;
7539;SDS011;3811;49.006;12.076;2023-11-21T10:36:56;1.50;;;1.40;;
7539;SDS011;3811;49.006;12.076;2023-11-21T10:39:24;2.27;;;1.40;;
7539;SDS011;3811;49.006;12.076;2023-11-21T10:41:57;1.83;;;1.63;;
7539;SDS011;3811;49.006;12.076;2023-11-21T10:44:23;1.50;;;1.40;;
7539;SDS011;3811;49.006;12.076;2023-11-21T10:46:52;1.40;;;1.30;;
7539;SDS011;3811;49.006;12.076;2023-11-21T10:49:21;2.00;;;1.40;;
7539;SDS011;3811;49.006;12.076;2023-11-21T10:51:50;1.30;;;1.20;;
7539;SDS011;3811;49.006;12.076;2023-11-21T10:54:18;1.57;;;1.47;;
7539;SDS011;3811;49.006;12.076;2023-11-21T10:56:47;1.50;;;1.40;;
7539;SDS011;3811;49.006;12.076;2023-11-21T10:59:17;1.53;;;1.50;;
7539;SDS011;3811;49.006;12.076;2023-11-21T11:01:46;1.47;;;1.37;;
7539;SDS011;3811;49.006;12.076;2023-11-21T11:04:15;1.63;;;1.53;;
7539;SDS011;3811;49.006;12.076;2023-11-21T11:06:44;1.80;;;1.30;;
7539;SDS011;3811;49.006;12.076;2023-11-21T11:09:17;3.50;;;1.87;;
7539;SDS011;3811;49.006;12.076;2023-11-21T11:11:44;2.30;;;1.20;;
7539;SDS011;3811;49.006;12.076;2023-11-21T11:14:12;1.27;;;1.23;;
7539;SDS011;3811;49.006;12.076;2023-11-21T11:16:41;1.47;;;1.37;;
7539;SDS011;3811;49.006;12.076;2023-11-21T11:19:08;1.30;;;1.30;;
7539;SDS011;3811;49.006;12.076;2023-11-21T11:21:38;1.00;;;1.00;;
7539;SDS011;3811;49.006;12.076;2023-11-21T11:24:17;1.23;;;1.20;;
7539;SDS011;3811;49.006;12.076;2023-11-21T11:27:05;1.30;;;1.30;;
7539;SDS011;3811;49.006;12.076;2023-11-21T11:29:43;1.93;;;1.47;;
7539;SDS011;3811;49.006;12.076;2023-11-21T11:32:23;1.70;;;1.60;;
7539;SDS011;3811;49.006;12.076;2023-11-21T11:34:59;1.37;;;1.30;;
7539;SDS011;3811;49.006;12.076;2023-11-21T11:37:30;1.20;;;1.10;;
7539;SDS011;3811;49.006;12.076;2023-11-21T11:39:57;1.20;;;1.20;;
7539;SDS011;3811;49.006;12.076;2023-11-21T11:42:26;1.40;;;1.30;;
7539;SDS011;3811;49.006;12.076;2023-11-21T11:44:55;1.10;;;1.10;;
7539;SDS011;3811;49.006;12.076;2023-11-21T11:47:25;1.40;;;1.30;;
7539;SDS011;3811;49.006;12.076;2023-11-21T11:49:58;1.10;;;1.10;;
7539;SDS011;3811;49.006;12.076;2023-11-21T11:52:33;1.07;;;1.07;;
7539;SDS011;3811;49.006;12.076;2023-11-21T11:55:01;1.00;;;1.00;;
7539;SDS011;3811;49.006;12.076;2023-11-21T11:57:29;2.43;;;1.33;;
7539;SDS011;3811;49.006;12.076;2023-11-21T12:00:07;1.60;;;1.50;;
7539;SDS011;3811;49.006;12.076;2023-11-21T12:02:37;1.20;;;1.20;;
7539;SDS011;3811;49.006;12.076;2023-11-21T12:05:08;0.97;;;0.97;;
7539;SDS011;3811;49.006;12.076;2023-11-21T12:07:43;0.97;;;0.97;;
7539;SDS011;3811;49.006;12.076;2023-11-21T12:10:11;1.43;;;1.37;;
7539;SDS011;3811;49.006;12.076;2023-11-21T12:12:43;1.50;;;1.40;;
7539;SDS011;3811;49.006;12.076;2023-11-21T12:15:11;0.97;;;0.93;;
7539;SDS011;3811;49.006;12.076;2023-11-21T12:17:41;1.53;;;1.07;;
7539;SDS011;3811;49.006;12.076;2023-11-21T12:20:09;1.10;;;1.10;;
7539;SDS011;3811;49.006;12.076;2023-11-21T12:22:43;1.37;;;1.30;;
7539;SDS011;3811;49.006;12.076;2023-11-21T12:25:12;1.50;;;1.40;;
7539;SDS011;3811;49.006;12.076;2023-11-21T12:27:42;1.50;;;1.40;;
7539;SDS011;3811;49.006;12.076;2023-11-21T12:30:10;2.03;;;1.63;;
7539;SDS011;3811;49.006;12.076;2023-11-21T12:32:42;1.30;;;1.20;;
7539;SDS011;3811;49.006;12.076;2023-11-21T12:35:11;1.40;;;1.30;;
7539;SDS011;3811;49.006;12.076;2023-11-21T12:37:38;1.40;;;1.30;;
7539;SDS011;3811;49.006;12.076;2023-11-21T12:40:08;1.27;;;1.10;;
7539;SDS011;3811;49.006;12.076;2023-11-21T12:42:37;1.27;;;1.27;;
7539;SDS011;3811;49.006;12.076;2023-11-21T12:45:08;1.70;;;1.60;;
7539;SDS011;3811;49.006;12.076;2023-11-21T12:47:42;1.43;;;1.37;;
7539;SDS011;3811;49.006;12.076;2023-11-21T12:50:09;1.40;;;1.30;;
7539;SDS011;3811;49.006;12.076;2023-11-21T12:52:40;1.00;;;1.00;;
7539;SDS011;3811;49.006;12.076;2023-11-21T12:55:13;1.60;;;1.50;;
7539;SDS011;3811;49.006;12.076;2023-11-21T12:57:45;1.30;;;1.20;;
7539;SDS011;3811;49.006;12.076;2023-11-21T13:00:12;1.67;;;1.57;;
7539;SDS011;3811;49.006;12.076;2023-11-21T13:02:53;1.50;;;1.40;;
7539;SDS011;3811;49.006;12.076;2023-11-21T13:05:28;1.10;;;1.10;;
7539;SDS011;3811;49.006;12.076;2023-11-21T13:07:57;1.43;;;1.37;;
7539;SDS011;3811;49.006;12.076;2023-11-21T13:10:27;1.37;;;1.30;;
7539;SDS011;3811;49.006;12.076;2023-11-21T13:12:56;1.00;;;1.00;;
7539;SDS011;3811;49.006;12.076;2023-11-21T13:15:25;1.77;;;1.67;;
7539;SDS011;3811;49.006;12.076;2023-11-21T13:17:54;1.37;;;1.37;;
7539;SDS011;3811;49.006;12.076;2023-11-21T13:20:22;1.67;;;1.57;;
7539;SDS011;3811;49.006;12.076;2023-11-21T13:22:50;1.57;;;1.47;;
7539;SDS011;3811;49.006;12.076;2023-11-21T13:25:20;1.60;;;1.27;;
7539;SDS011;3811;49.006;12.076;2023-11-21T13:27:47;1.50;;;1.40;;
7539;SDS011;3811;49.006;12.076;2023-11-21T13:30:15;1.60;;;1.50;;
7539;SDS011;3811;49.006;12.076;2023-11-21T13:32:43;2.03;;;1.17;;
7539;SDS011;3811;49.006;12.076;2023-11-21T13:35:12;1.37;;;1.27;;
7539;SDS011;3811;49.006;12.076;2023-11-21T13:37:49;1.33;;;1.30;;
7539;SDS011;3811;49.006;12.076;2023-11-21T13:40:21;1.27;;;1.17;;
7539;SDS011;3811;49.006;12.076;2023-11-21T13:42:51;1.30;;;1.30;;
7539;SDS011;3811;49.006;12.076;2023-11-21T13:45:20;1.30;;;1.20;;
7539;SDS011;3811;49.006;12.076;2023-11-21T13:47:49;1.20;;;1.10;;
7539;SDS011;3811;49.006;12.076;2023-11-21T13:50:25;1.30;;;1.20;;
7539;SDS011;3811;49.006;12.076;2023-11-21T13:52:57;1.07;;;1.07;;
7539;SDS011;3811;49.006;12.076;2023-11-21T13:55:29;1.10;;;1.10;;
7539;SDS011;3811;49.006;12.076;2023-11-21T13:57:56;2.20;;;1.77;;
7539;SDS011;3811;49.006;12.076;2023-11-21T14:00:24;1.40;;;1.30;;
7539;SDS011;3811;49.006;12.076;2023-11-21T14:03:10;1.47;;;1.37;;
7539;SDS011;3811;49.006;12.076;2023-11-21T14:05:45;1.20;;;1.20;;
7539;SDS011;3811;49.006;12.076;2023-11-21T14:08:16;1.60;;;1.50;;
7539;SDS011;3811;49.006;12.076;2023-11-21T14:10:45;1.07;;;1.07;;
7539;SDS011;3811;49.006;12.076;2023-11-21T14:13:15;1.27;;;1.20;;
7539;SDS011;3811;49.006;12.076;2023-11-21T14:15:43;1.60;;;1.50;;
7539;SDS011;3811;49.006;12.076;2023-11-21T14:18:10;2.60;;;1.60;;
7539;SDS011;3811;49.006;12.076;2023-11-21T14:20:39;4.13;;;1.67;;
7539;SDS011;3811;49.006;12.076;2023-11-21T14:23:08;2.20;;;2.10;;
7539;SDS011;3811;49.006;12.076;2023-11-21T14:25:36;2.00;;;1.80;;
7539;SDS011;3811;49.006;12.076;2023-11-21T14:28:06;1.50;;;1.40;;
7539;SDS011;3811;49.006;12.076;2023-11-21T14:30:33;1.53;;;1.43;;
7539;SDS011;3811;49.006;12.076;2023-11-21T14:33:01;2.50;;;1.80;;
7539;SDS011;3811;49.006;12.076;2023-11-21T14:35:29;1.70;;;1.60;;
7539;SDS011;3811;49.006;12.076;2023-11-21T14:37:57;1.97;;;1.87;;
7539;SDS011;3811;49.006;12.076;2023-11-21T14:40:27;1.57;;;1.47;;
7539;SDS011;3811;49.006;12.076;2023-11-21T14:42:58;1.80;;;1.70;;
7539;SDS011;3811;49.006;12.076;2023-11-21T14:45:25;1.70;;;1.60;;
7539;SDS011;3811;49.006;12.076;2023-11-21T14:47:54;1.73;;;1.63;;
7539;SDS011;3811;49.006;12.076;2023-11-21T14:50:31;2.80;;;1.17;;
7539;SDS011;3811;49.006;12.076;2023-11-21T14:53:14;1.40;;;1.30;;
7539;SDS011;3811;49.006;12.076;2023-11-21T14:55:41;1.70;;;1.60;;
7539;SDS011;3811;49.006;12.076;2023-11-21T14:58:22;4.10;;;1.67;;
7539;SDS011;3811;49.006;12.076;2023-11-21T15:00:55;1.67;;;1.57;;
7539;SDS011;3811;49.006;12.076;2023-11-21T15:03:24;1.73;;;1.63;;
7539;SDS011;3811;49.006;12.076;2023-11-21T15:06:09;1.90;;;1.80;;
7539;SDS011;3811;49.006;12.076;2023-11-21T15:08:48;1.90;;;1.80;;
7539;SDS011;3811;49.006;12.076;2023-11-21T15:11:22;2.17;;;1.97;;